createdAt,value
2023-05-12T00:00:40.642Z,13.22
2023-05-12T00:02:40.238Z,13.21
2023-05-12T00:03:40.084Z,13.21
2023-05-12T00:04:39.981Z,13.22
2023-05-12T00:05:39.494Z,13.22
2023-05-12T00:06:39.443Z,13.22
2023-05-12T00:07:39.064Z,13.22
2023-05-12T00:08:39.155Z,13.21
2023-05-12T00:09:39.323Z,13.22
2023-05-12T00:10:39.259Z,13.22
2023-05-12T00:11:39.619Z,13.19
2023-05-12T00:12:39.483Z,13.19
2023-05-12T00:13:39.276Z,13.19
2023-05-12T00:14:39.347Z,13.20
2023-05-12T00:15:39.405Z,13.19
2023-05-12T00:16:39.466Z,13.19
2023-05-12T00:17:39.396Z,13.20
2023-05-12T00:18:39.078Z,13.20
2023-05-12T00:19:38.755Z,13.19
2023-05-12T00:20:40.075Z,13.18
2023-05-12T00:21:38.926Z,13.19
2023-05-12T00:22:39.552Z,13.19
2023-05-12T00:23:39.683Z,13.19
2023-05-12T00:24:39.848Z,13.19
2023-05-12T00:25:39.776Z,13.19
2023-05-12T00:26:39.547Z,13.19
2023-05-12T00:27:39.197Z,13.18
2023-05-12T00:28:39.133Z,13.18
2023-05-12T00:29:38.822Z,13.18
2023-05-12T00:30:39.825Z,13.17
2023-05-12T00:31:39.801Z,13.17
2023-05-12T00:32:39.612Z,13.18
2023-05-12T00:33:39.428Z,13.17
2023-05-12T00:34:39.057Z,13.17
2023-05-12T00:35:39.094Z,13.17
2023-05-12T00:36:39.076Z,13.17
2023-05-12T00:37:39.094Z,13.17
2023-05-12T00:38:39.176Z,13.16
2023-05-12T00:39:39.119Z,13.17
2023-05-12T00:40:39.029Z,13.17
2023-05-12T00:41:39.123Z,13.17
2023-05-12T00:42:39.151Z,13.15
2023-05-12T00:43:38.987Z,13.14
2023-05-12T00:44:39.038Z,13.14
2023-05-12T00:45:39.424Z,13.14
2023-05-12T00:46:39.786Z,13.14
2023-05-12T00:47:39.583Z,13.14
2023-05-12T00:48:39.510Z,13.14
2023-05-12T00:49:39.346Z,13.14
2023-05-12T00:50:39.417Z,13.14
2023-05-12T00:51:39.284Z,13.15
2023-05-12T00:52:39.397Z,13.14
2023-05-12T00:53:49.273Z,13.15
2023-05-12T00:54:38.975Z,13.15
2023-05-12T00:55:39.135Z,13.14
2023-05-12T00:56:39.467Z,13.15
2023-05-12T00:57:39.725Z,13.14
2023-05-12T00:58:40.015Z,13.14
2023-05-12T00:59:39.552Z,13.14
2023-05-12T01:00:40.617Z,13.13
2023-05-12T01:01:39.493Z,13.14
2023-05-12T01:02:39.824Z,13.14
2023-05-12T01:03:40.221Z,13.14
2023-05-12T01:04:39.137Z,13.14
2023-05-12T01:05:39.446Z,13.12
2023-05-12T01:06:39.578Z,13.12
2023-05-12T01:07:39.435Z,13.11
2023-05-12T01:08:39.465Z,13.11
2023-05-12T01:09:39.661Z,13.11
2023-05-12T01:10:39.737Z,13.11
2023-05-12T01:11:58.711Z,13.10
2023-05-12T01:12:39.485Z,13.11
2023-05-12T01:13:39.447Z,13.10
2023-05-12T01:14:39.329Z,13.09
2023-05-12T01:15:39.653Z,13.08
2023-05-12T01:16:39.575Z,13.08
2023-05-12T01:17:39.884Z,13.08
2023-05-12T01:18:39.065Z,13.08
2023-05-12T01:19:38.922Z,13.09
2023-05-12T01:20:39.893Z,13.09
2023-05-12T01:21:39.783Z,13.09
2023-05-12T01:22:39.845Z,13.08
2023-05-12T01:24:01.884Z,13.08
2023-05-12T01:24:39.700Z,13.08
2023-05-12T01:25:39.487Z,13.07
2023-05-12T01:26:39.433Z,13.07
2023-05-12T01:27:39.257Z,13.07
2023-05-12T01:28:39.224Z,13.07
2023-05-12T01:29:39.078Z,13.06
2023-05-12T01:30:40.535Z,13.06
2023-05-12T01:31:39.770Z,13.05
2023-05-12T01:32:40.280Z,13.04
2023-05-12T01:33:39.172Z,13.03
2023-05-12T01:34:39.085Z,13.03
2023-05-12T01:35:39.231Z,13.03
2023-05-12T01:36:39.207Z,13.03
2023-05-12T01:37:39.081Z,13.03
2023-05-12T01:38:39.109Z,13.04
2023-05-12T01:39:38.611Z,13.03
2023-05-12T01:40:39.428Z,13.03
2023-05-12T01:41:39.146Z,13.02
2023-05-12T01:42:39.209Z,13.02
2023-05-12T01:43:39.244Z,13.02
2023-05-12T01:44:38.827Z,13.02
2023-05-12T01:45:39.770Z,13.03
2023-05-12T01:46:39.883Z,13.03
2023-05-12T01:47:40.180Z,13.03
2023-05-12T01:48:39.236Z,13.02
2023-05-12T01:49:39.108Z,13.02
2023-05-12T01:50:39.055Z,13.02
2023-05-12T01:51:39.296Z,13.02
2023-05-12T01:52:39.380Z,13.02
2023-05-12T01:53:39.500Z,13.02
2023-05-12T01:54:39.424Z,13.02
2023-05-12T01:55:39.631Z,13.02
2023-05-12T01:56:39.707Z,13.03
2023-05-12T01:57:39.640Z,13.03
2023-05-12T01:58:39.525Z,13.02
2023-05-12T01:59:39.648Z,13.02
2023-05-12T02:00:40.548Z,13.02
2023-05-12T02:01:39.727Z,13.02
2023-05-12T02:02:42.138Z,13.02
2023-05-12T02:03:39.354Z,13.01
2023-05-12T02:04:39.712Z,13.01
2023-05-12T02:05:39.653Z,13.00
2023-05-12T02:06:39.623Z,13.01
2023-05-12T02:07:39.357Z,13.01
2023-05-12T02:08:39.112Z,13.02
2023-05-12T02:09:38.994Z,13.02
2023-05-12T02:10:39.053Z,13.02
2023-05-12T02:11:39.239Z,13.01
2023-05-12T02:12:39.464Z,13.01
2023-05-12T02:13:39.752Z,13.00
2023-05-12T02:14:40.024Z,12.99
2023-05-12T02:15:39.720Z,13
2023-05-12T02:16:40.487Z,13.01
2023-05-12T02:17:39.469Z,13.01
2023-05-12T02:18:39.314Z,13.01
2023-05-12T02:19:38.873Z,13.01
2023-05-12T02:20:40.004Z,13.02
2023-05-12T02:21:38.890Z,13.02
2023-05-12T02:22:39.849Z,13.02
2023-05-12T02:23:39.623Z,13.01
2023-05-12T02:24:39.213Z,13.02
2023-05-12T02:25:39.409Z,13.01
2023-05-12T02:26:39.469Z,13.01
2023-05-12T02:27:39.334Z,13.01
2023-05-12T02:28:39.299Z,13.02
2023-05-12T02:29:39.284Z,13.02
2023-05-12T02:30:39.515Z,13.02
2023-05-12T02:31:39.580Z,13.02
2023-05-12T02:32:39.421Z,13.01
2023-05-12T02:33:39.473Z,13.01
2023-05-12T02:34:39.225Z,13.01
2023-05-12T02:35:39.247Z,13.00
2023-05-12T02:36:39.087Z,12.99
2023-05-12T02:37:38.930Z,12.98
2023-05-12T02:38:39.598Z,12.99
2023-05-12T02:39:39.431Z,12.99
2023-05-12T02:40:39.528Z,12.99
2023-05-12T02:41:39.246Z,13
2023-05-12T02:42:38.886Z,12.99
2023-05-12T02:43:39.551Z,13.00
2023-05-12T02:44:39.403Z,13.00
2023-05-12T02:45:39.699Z,13.00
2023-05-12T02:46:39.680Z,13.01
2023-05-12T02:47:40.309Z,13.00
2023-05-12T02:48:39.632Z,13.00
2023-05-12T02:49:39.691Z,13.01
2023-05-12T02:50:40.351Z,13.01
2023-05-12T02:51:39.293Z,13.01
2023-05-12T02:52:39.378Z,13.01
2023-05-12T02:53:39.339Z,13.01
2023-05-12T02:54:39.078Z,13.00
2023-05-12T02:55:39.224Z,13
2023-05-12T02:56:39.116Z,12.99
2023-05-12T02:57:39.104Z,12.99
2023-05-12T02:58:39.092Z,12.99
2023-05-12T02:59:39.514Z,12.99
2023-05-12T03:00:40.840Z,13.01
2023-05-12T03:01:39.771Z,13.01
2023-05-12T03:02:45.136Z,13.01
2023-05-12T03:03:39.906Z,13.00
2023-05-12T03:04:44.828Z,12.99
2023-05-12T03:05:39.986Z,12.99
2023-05-12T03:06:44.243Z,12.99
2023-05-12T03:07:39.799Z,13.00
2023-05-12T03:08:39.682Z,13
2023-05-12T03:09:39.532Z,12.99
2023-05-12T03:10:39.273Z,13.00
2023-05-12T03:11:39.069Z,13
2023-05-12T03:12:39.187Z,12.98
2023-05-12T03:13:38.998Z,12.97
2023-05-12T03:14:38.998Z,12.99
2023-05-12T03:15:39.289Z,12.99
2023-05-12T03:16:39.522Z,12.99
2023-05-12T03:17:39.414Z,12.99
2023-05-12T03:18:39.173Z,12.97
2023-05-12T03:19:39.083Z,12.97
2023-05-12T03:20:39.442Z,12.97
2023-05-12T03:21:39.696Z,12.97
2023-05-12T03:22:53.964Z,12.98
2023-05-12T03:23:38.910Z,12.97
2023-05-12T03:24:39.885Z,12.97
2023-05-12T03:25:40.306Z,12.98
2023-05-12T03:26:39.624Z,12.97
2023-05-12T03:27:39.780Z,12.99
2023-05-12T03:28:39.659Z,13.00
2023-05-12T03:29:39.483Z,13.00
2023-05-12T03:30:39.835Z,13
2023-05-12T03:31:39.794Z,12.98
2023-05-12T03:32:39.849Z,12.97
2023-05-12T03:33:39.980Z,12.97
2023-05-12T03:34:53.587Z,12.97
2023-05-12T03:36:58.263Z,12.98
2023-05-12T03:37:39.218Z,12.98
2023-05-12T03:38:39.190Z,12.98
2023-05-12T03:39:39.192Z,12.97
2023-05-12T03:40:58.565Z,12.97
2023-05-12T03:41:39.427Z,12.98
2023-05-12T03:42:39.407Z,12.99
2023-05-12T03:43:39.514Z,13.00
2023-05-12T03:44:39.314Z,12.98
2023-05-12T03:45:39.675Z,12.97
2023-05-12T03:46:39.697Z,12.97
2023-05-12T03:47:42.679Z,12.98
2023-05-12T03:48:39.945Z,13.00
2023-05-12T03:49:39.455Z,12.99
2023-05-12T03:50:39.757Z,13.00
2023-05-12T03:51:39.421Z,12.99
2023-05-12T03:52:38.890Z,12.99
2023-05-12T03:53:39.813Z,12.98
2023-05-12T03:54:39.470Z,12.97
2023-05-12T03:55:39.407Z,12.99
2023-05-12T03:56:39.923Z,13.00
2023-05-12T03:57:40.369Z,13.00
2023-05-12T03:58:39.275Z,12.99
2023-05-12T03:59:39.329Z,12.99
2023-05-12T04:00:54.085Z,12.99
2023-05-12T04:01:39.207Z,12.99
2023-05-12T04:02:39.457Z,13.00
2023-05-12T04:03:39.701Z,13
2023-05-12T04:04:39.860Z,12.98
2023-05-12T04:05:40.116Z,12.97
2023-05-12T04:06:39.309Z,12.97
2023-05-12T04:07:38.986Z,12.97
2023-05-12T04:08:41.700Z,12.97
2023-05-12T04:09:39.080Z,12.97
2023-05-12T04:10:39.205Z,12.97
2023-05-12T04:11:39.405Z,12.98
2023-05-12T04:12:39.601Z,12.98
2023-05-12T04:13:39.891Z,12.99
2023-05-12T04:14:57.233Z,12.99
2023-05-12T04:15:39.374Z,12.98
2023-05-12T04:16:39.680Z,12.98
2023-05-12T04:17:39.807Z,12.98
2023-05-12T04:18:40.151Z,12.97
2023-05-12T04:19:39.169Z,12.97
2023-05-12T04:20:39.349Z,12.96
2023-05-12T04:21:39.283Z,12.97
2023-05-12T04:22:41.192Z,12.97
2023-05-12T04:23:39.096Z,12.97
2023-05-12T04:24:39.353Z,12.96
2023-05-12T04:25:39.630Z,12.96
2023-05-12T04:26:39.618Z,12.97
2023-05-12T04:27:39.624Z,12.98
2023-05-12T04:28:39.515Z,12.98
2023-05-12T04:29:39.486Z,12.99
2023-05-12T04:30:39.803Z,13
2023-05-12T04:31:40.004Z,13.01
2023-05-12T04:32:39.140Z,13.02
2023-05-12T04:33:39.708Z,13.03
2023-05-12T04:34:39.631Z,13.04
2023-05-12T04:35:39.677Z,13.04
2023-05-12T04:36:39.449Z,13.04
2023-05-12T04:37:39.337Z,13.05
2023-05-12T04:38:39.029Z,13.06
2023-05-12T04:39:39.230Z,13.07
2023-05-12T04:40:39.415Z,13.08
2023-05-12T04:41:39.579Z,13.09
2023-05-12T04:42:39.500Z,13.09
2023-05-12T04:44:39.337Z,13.10
2023-05-12T04:45:39.729Z,13.12
2023-05-12T04:46:39.938Z,13.13
2023-05-12T04:47:40.337Z,13.15
2023-05-12T04:48:39.562Z,13.17
2023-05-12T04:49:39.520Z,13.17
2023-05-12T04:50:39.891Z,13.18
2023-05-12T04:51:40.005Z,13.18
2023-05-12T04:52:40.328Z,13.18
2023-05-12T04:53:39.684Z,13.19
2023-05-12T04:54:39.951Z,13.19
2023-05-12T04:55:40.354Z,13.21
2023-05-12T04:56:39.357Z,13.22
2023-05-12T04:57:39.564Z,13.23
2023-05-12T04:58:40.085Z,13.25
2023-05-12T04:59:41.222Z,13.27
2023-05-12T05:00:41.181Z,13.25
2023-05-12T05:01:40.094Z,13.26
2023-05-12T05:02:39.712Z,13.25
2023-05-12T05:03:40.322Z,13.25
2023-05-12T05:04:39.721Z,13.26
2023-05-12T05:05:39.921Z,13.26
2023-05-12T05:06:40.119Z,13.27
2023-05-12T05:07:39.481Z,13.28
2023-05-12T05:08:39.837Z,13.30
2023-05-12T05:09:39.773Z,13.30
2023-05-12T05:10:40.309Z,13.32
2023-05-12T05:11:39.760Z,13.31
2023-05-12T05:12:40.002Z,13.32
2023-05-12T05:13:39.239Z,13.33
2023-05-12T05:14:39.573Z,13.34
2023-05-12T05:15:39.663Z,13.35
2023-05-12T05:16:40.384Z,13.36
2023-05-12T05:17:39.894Z,13.36
2023-05-12T05:18:40.543Z,13.37
2023-05-12T05:19:59.834Z,13.37
2023-05-12T05:20:45.655Z,13.38
2023-05-12T05:21:39.853Z,13.38
2023-05-12T05:22:40.042Z,13.39
2023-05-12T05:23:39.538Z,13.40
2023-05-12T05:24:39.891Z,13.41
2023-05-12T05:25:40.163Z,13.41
2023-05-12T05:26:39.322Z,13.41
2023-05-12T05:27:39.672Z,13.42
2023-05-12T05:28:40.171Z,13.43
2023-05-12T05:29:39.777Z,13.43
2023-05-12T05:30:40.372Z,13.44
2023-05-12T05:31:44.908Z,13.44
2023-05-12T05:32:39.737Z,13.44
2023-05-12T05:33:45.080Z,13.43
2023-05-12T05:34:39.556Z,13.43
2023-05-12T05:35:39.709Z,13.44
2023-05-12T05:36:39.887Z,13.45
2023-05-12T05:37:40.133Z,13.44
2023-05-12T05:38:39.572Z,13.43
2023-05-12T05:39:40.071Z,13.43
2023-05-12T05:40:52.203Z,13.43
2023-05-12T05:41:40.492Z,13.43
2023-05-12T05:42:39.655Z,13.45
2023-05-12T05:43:39.814Z,13.44
2023-05-12T05:44:40.001Z,13.44
2023-05-12T05:45:41.610Z,13.44
2023-05-12T05:46:40.000Z,13.46
2023-05-12T05:47:53.982Z,13.45
2023-05-12T05:48:39.950Z,13.46
2023-05-12T05:49:40.624Z,13.48
2023-05-12T05:50:40.094Z,13.51
2023-05-12T05:51:39.601Z,13.54
2023-05-12T05:52:40.223Z,13.56
2023-05-12T05:53:39.974Z,13.57
2023-05-12T05:54:39.680Z,13.60
2023-05-12T05:55:40.147Z,13.58
2023-05-12T05:56:39.915Z,13.58
2023-05-12T05:57:40.412Z,13.56
2023-05-12T05:58:39.995Z,13.56
2023-05-12T05:59:40.066Z,13.55
2023-05-12T06:00:40.523Z,13.53
2023-05-12T06:01:40.105Z,13.53
2023-05-12T06:02:39.819Z,13.52
2023-05-12T06:03:59.840Z,13.48
2023-05-12T06:04:40.812Z,13.52
2023-05-12T06:05:40.408Z,13.51
2023-05-12T06:06:39.892Z,13.46
2023-05-12T06:07:59.273Z,13.46
2023-05-12T06:08:39.598Z,13.47
2023-05-12T06:09:40.205Z,13.45
2023-05-12T06:10:39.546Z,13.45
2023-05-12T06:11:39.332Z,13.44
2023-05-12T06:12:39.495Z,13.43
2023-05-12T06:13:40.008Z,13.45
2023-05-12T06:14:39.684Z,13.45
2023-05-12T06:15:40.372Z,13.44
2023-05-12T06:16:39.908Z,13.44
2023-05-12T06:18:04.319Z,13.45
2023-05-12T06:18:40.661Z,13.44
2023-05-12T06:19:40.190Z,13.45
2023-05-12T06:20:39.969Z,13.43
2023-05-12T06:21:39.961Z,13.43
2023-05-12T06:22:40.030Z,13.46
2023-05-12T06:23:39.490Z,13.45
2023-05-12T06:24:40.059Z,13.47
2023-05-12T06:25:40.066Z,13.48
2023-05-12T06:26:39.872Z,13.48
2023-05-12T06:27:39.805Z,13.47
2023-05-12T06:28:39.941Z,13.45
2023-05-12T06:29:40.403Z,13.47
2023-05-12T06:30:40.100Z,13.48
2023-05-12T06:31:39.654Z,13.48
2023-05-12T06:32:40.490Z,13.47
2023-05-12T06:33:39.863Z,13.48
2023-05-12T06:34:40.347Z,13.48
2023-05-12T06:35:39.762Z,13.50
2023-05-12T06:36:40.275Z,13.54
2023-05-12T06:37:40.221Z,13.54
2023-05-12T06:38:39.991Z,13.53
2023-05-12T06:39:39.889Z,13.53
2023-05-12T06:40:40.545Z,13.52
2023-05-12T06:41:39.969Z,13.50
2023-05-12T06:42:40.463Z,13.51
2023-05-12T06:43:39.612Z,13.51
2023-05-12T06:44:41.740Z,13.52
2023-05-12T06:45:39.596Z,13.53
2023-05-12T06:46:39.915Z,13.52
2023-05-12T06:47:40.602Z,13.55
2023-05-12T06:48:40.095Z,13.56
2023-05-12T06:49:39.648Z,13.56
2023-05-12T06:50:40.294Z,13.56
2023-05-12T06:51:40.006Z,13.55
2023-05-12T06:52:39.620Z,13.56
2023-05-12T06:53:41.770Z,13.56
2023-05-12T06:54:39.999Z,13.58
2023-05-12T06:55:39.770Z,13.60
2023-05-12T06:56:40.176Z,13.60
2023-05-12T06:57:39.464Z,13.60
2023-05-12T06:58:39.762Z,13.66
2023-05-12T06:59:40.271Z,13.70
2023-05-12T07:00:40.402Z,13.68
2023-05-12T07:01:40.042Z,13.67
2023-05-12T07:02:39.980Z,13.69
2023-05-12T07:03:39.670Z,13.68
2023-05-12T07:04:41.948Z,13.68
2023-05-12T07:05:40.837Z,13.68
2023-05-12T07:06:39.957Z,13.65
2023-05-12T07:07:40.302Z,13.71
2023-05-12T07:08:39.836Z,13.75
2023-05-12T07:09:40.308Z,13.74
2023-05-12T07:10:40.791Z,13.76
2023-05-12T07:11:40.449Z,13.78
2023-05-12T07:12:39.776Z,13.77
2023-05-12T07:13:40.831Z,13.78
2023-05-12T07:14:40.231Z,13.75
2023-05-12T07:15:39.928Z,13.77
2023-05-12T07:16:40.489Z,13.81
2023-05-12T07:18:39.559Z,13.84
2023-05-12T07:19:39.757Z,13.85
2023-05-12T07:20:39.973Z,13.87
2023-05-12T07:21:39.502Z,13.84
2023-05-12T07:22:39.593Z,13.84
2023-05-12T07:23:39.914Z,13.83
2023-05-12T07:24:40.192Z,13.89
2023-05-12T07:25:40.029Z,13.87
2023-05-12T07:26:39.710Z,13.88
2023-05-12T07:27:40.101Z,13.89
2023-05-12T07:28:39.433Z,13.88
2023-05-12T07:29:40.014Z,13.86
2023-05-12T07:30:39.969Z,13.85
2023-05-12T07:31:40.471Z,13.87
2023-05-12T07:32:40.040Z,13.86
2023-05-12T07:33:39.500Z,13.84
2023-05-12T07:34:40.002Z,13.84
2023-05-12T07:35:39.560Z,13.86
2023-05-12T07:36:39.872Z,13.86
2023-05-12T07:37:40.080Z,13.85
2023-05-12T07:38:39.307Z,13.85
2023-05-12T07:39:39.609Z,13.83
2023-05-12T07:40:40.156Z,13.85
2023-05-12T07:41:39.871Z,13.87
2023-05-12T07:42:40.719Z,13.87
2023-05-12T07:43:40.256Z,13.89
2023-05-12T07:44:39.727Z,13.89
2023-05-12T07:45:40.431Z,13.91
2023-05-12T07:46:40.096Z,13.92
2023-05-12T07:47:39.438Z,13.92
2023-05-12T07:48:40.009Z,13.93
2023-05-12T07:49:40.041Z,13.92
2023-05-12T07:50:40.151Z,13.93
2023-05-12T07:51:39.870Z,13.95
2023-05-12T07:52:39.910Z,13.97
2023-05-12T07:53:40.023Z,14.01
2023-05-12T07:54:39.607Z,14.06
2023-05-12T07:55:40.199Z,14.10
2023-05-12T07:56:39.676Z,14.06
2023-05-12T07:57:40.176Z,14.08
2023-05-12T07:58:39.767Z,14.10
2023-05-12T07:59:39.685Z,14.08
2023-05-12T08:00:40.874Z,14.10
2023-05-12T08:01:40.490Z,14.13
2023-05-12T08:02:40.242Z,14.14
2023-05-12T08:03:40.000Z,14.13
2023-05-12T08:04:39.729Z,14.15
2023-05-12T08:05:40.065Z,14.21
2023-05-12T08:06:40.561Z,14.27
2023-05-12T08:07:41.103Z,14.35
2023-05-12T08:08:39.722Z,14.31
2023-05-12T08:09:40.046Z,14.35
2023-05-12T08:10:47.880Z,14.37
2023-05-12T08:11:39.653Z,14.39
2023-05-12T08:12:40.268Z,14.48
2023-05-12T08:13:39.782Z,14.52
2023-05-12T08:14:40.121Z,14.53
2023-05-12T08:15:39.785Z,14.57
2023-05-12T08:16:40.052Z,14.59
2023-05-12T08:17:42.025Z,14.59
2023-05-12T08:18:39.962Z,14.59
2023-05-12T08:19:40.119Z,14.57
2023-05-12T08:20:39.760Z,14.57
2023-05-12T08:21:39.986Z,14.67
2023-05-12T08:22:39.524Z,14.70
2023-05-12T08:23:39.619Z,14.80
2023-05-12T08:24:39.963Z,14.82
2023-05-12T08:25:40.288Z,14.84
2023-05-12T08:26:39.590Z,14.87
2023-05-12T08:27:39.789Z,14.82
2023-05-12T08:28:39.996Z,14.89
2023-05-12T08:29:39.471Z,14.94
2023-05-12T08:30:40.305Z,14.94
2023-05-12T08:31:39.739Z,15.04
2023-05-12T08:32:40.273Z,15.06
2023-05-12T08:33:39.759Z,15.12
2023-05-12T08:34:40.093Z,15.19
2023-05-12T08:35:39.766Z,15.23
2023-05-12T08:36:45.482Z,15.30
2023-05-12T08:37:40.317Z,15.39
2023-05-12T08:38:39.760Z,15.40
2023-05-12T08:39:40.034Z,15.43
2023-05-12T08:40:39.716Z,15.51
2023-05-12T08:41:40.424Z,15.57
2023-05-12T08:42:40.021Z,15.55
2023-05-12T08:43:39.296Z,15.57
2023-05-12T08:44:39.439Z,15.60
2023-05-12T08:45:39.870Z,15.72
2023-05-12T08:46:40.451Z,15.64
2023-05-12T08:47:39.683Z,15.64
2023-05-12T08:48:40.560Z,15.67
2023-05-12T08:49:39.941Z,15.63
2023-05-12T08:50:40.339Z,15.59
2023-05-12T08:51:39.753Z,15.56
2023-05-12T08:52:40.094Z,15.49
2023-05-12T08:53:39.754Z,15.49
2023-05-12T08:54:45.573Z,15.49
2023-05-12T08:56:01.414Z,15.42
2023-05-12T08:57:39.860Z,15.39
2023-05-12T08:58:53.560Z,15.45
2023-05-12T08:59:40.105Z,15.41
2023-05-12T09:00:40.690Z,15.33
2023-05-12T09:01:40.155Z,15.33
2023-05-12T09:02:52.023Z,15.35
2023-05-12T09:03:39.966Z,15.31
2023-05-12T09:04:39.700Z,15.37
2023-05-12T09:05:40.000Z,15.38
2023-05-12T09:06:39.639Z,15.37
2023-05-12T09:07:39.884Z,15.46
2023-05-12T09:08:40.039Z,15.46
2023-05-12T09:09:39.762Z,15.48
2023-05-12T09:10:50.122Z,15.55
2023-05-12T09:11:39.674Z,15.66
2023-05-12T09:12:59.086Z,15.79
2023-05-12T09:13:40.105Z,15.80
2023-05-12T09:14:39.538Z,15.78
2023-05-12T09:15:40.119Z,15.77
2023-05-12T09:16:40.053Z,15.81
2023-05-12T09:17:39.780Z,15.82
2023-05-12T09:18:40.218Z,15.84
2023-05-12T09:19:39.806Z,15.86
2023-05-12T09:20:46.854Z,15.85
2023-05-12T09:21:40.383Z,15.85
2023-05-12T09:23:11.514Z,15.84
2023-05-12T09:23:44.716Z,15.82
2023-05-12T09:24:40.317Z,15.79
2023-05-12T09:25:40.451Z,15.76
2023-05-12T09:26:39.598Z,15.73
2023-05-12T09:27:39.850Z,15.71
2023-05-12T09:28:39.904Z,15.74
2023-05-12T09:29:58.937Z,15.71
2023-05-12T09:30:40.065Z,15.73
2023-05-12T09:31:40.046Z,15.78
2023-05-12T09:32:39.546Z,15.83
2023-05-12T09:33:39.739Z,15.88
2023-05-12T09:34:39.728Z,15.96
2023-05-12T09:35:40.259Z,15.99
2023-05-12T09:36:39.652Z,15.97
2023-05-12T09:37:40.115Z,16.03
2023-05-12T09:38:39.761Z,16.10
2023-05-12T09:39:40.145Z,16.12
2023-05-12T09:40:39.846Z,16.16
2023-05-12T09:41:40.149Z,16.20
2023-05-12T09:43:39.999Z,16.19
2023-05-12T09:44:39.717Z,16.12
2023-05-12T09:45:40.607Z,16.17
2023-05-12T09:46:40.556Z,16.12
2023-05-12T09:47:40.455Z,16.12
2023-05-12T09:48:43.203Z,16.13
2023-05-12T09:49:39.905Z,16.22
2023-05-12T09:50:47.242Z,16.22
2023-05-12T09:51:40.220Z,16.20
2023-05-12T09:52:39.961Z,16.22
2023-05-12T09:53:40.100Z,16.27
2023-05-12T09:54:39.582Z,16.31
2023-05-12T09:55:40.232Z,16.32
2023-05-12T09:56:39.665Z,16.35
2023-05-12T09:57:40.283Z,16.38
2023-05-12T09:58:40.006Z,16.41
2023-05-12T09:59:41.647Z,16.40
2023-05-12T10:01:40.272Z,16.48
2023-05-12T10:02:40.522Z,16.51
2023-05-12T10:03:39.861Z,16.48
2023-05-12T10:04:40.421Z,16.46
2023-05-12T10:05:39.911Z,16.53
2023-05-12T10:06:40.230Z,16.52
2023-05-12T10:07:39.696Z,16.47
2023-05-12T10:08:40.240Z,16.46
2023-05-12T10:09:39.727Z,16.50
2023-05-12T10:10:40.354Z,16.47
2023-05-12T10:11:39.733Z,16.47
2023-05-12T10:12:40.024Z,16.48
2023-05-12T10:13:39.642Z,16.54
2023-05-12T10:14:39.893Z,16.49
2023-05-12T10:15:40.776Z,16.47
2023-05-12T10:16:40.270Z,16.48
2023-05-12T10:17:40.400Z,16.48
2023-05-12T10:18:39.989Z,16.50
2023-05-12T10:19:39.604Z,16.49
2023-05-12T10:20:40.216Z,16.53
2023-05-12T10:21:44.903Z,16.56
2023-05-12T10:22:39.639Z,16.57
2023-05-12T10:23:45.048Z,16.63
2023-05-12T10:24:39.710Z,16.75
2023-05-12T10:25:45.467Z,16.80
2023-05-12T10:26:40.062Z,16.83
2023-05-12T10:27:39.571Z,16.79
2023-05-12T10:28:40.208Z,16.79
2023-05-12T10:29:39.808Z,16.81
2023-05-12T10:30:40.328Z,16.85
2023-05-12T10:31:48.459Z,16.89
2023-05-12T10:32:39.964Z,16.81
2023-05-12T10:33:39.472Z,16.85
2023-05-12T10:34:40.076Z,16.85
2023-05-12T10:35:40.069Z,16.82
2023-05-12T10:36:40.187Z,16.85
2023-05-12T10:37:39.863Z,16.88
2023-05-12T10:38:40.432Z,16.86
2023-05-12T10:39:40.104Z,16.88
2023-05-12T10:40:40.054Z,16.87
2023-05-12T10:41:40.099Z,16.90
2023-05-12T10:42:39.922Z,16.90
2023-05-12T10:43:54.356Z,16.97
2023-05-12T10:44:39.939Z,17.08
2023-05-12T10:45:53.952Z,17.07
2023-05-12T10:46:40.738Z,17.10
2023-05-12T10:47:40.232Z,17.10
2023-05-12T10:48:40.146Z,17.09
2023-05-12T10:49:39.829Z,17.17
2023-05-12T10:50:40.198Z,17.18
2023-05-12T10:51:39.824Z,17.12
2023-05-12T10:52:40.235Z,17.13
2023-05-12T10:53:49.848Z,17.14
2023-05-12T10:54:40.221Z,17.21
2023-05-12T10:55:41.100Z,17.25
2023-05-12T10:56:41.305Z,17.31
2023-05-12T10:58:00.263Z,17.31
2023-05-12T10:58:40.791Z,17.24
2023-05-12T10:59:41.346Z,17.26
2023-05-12T11:00:43.140Z,17.23
2023-05-12T11:01:42.476Z,17.28
2023-05-12T11:02:42.748Z,17.30
2023-05-12T11:03:42.459Z,17.31
2023-05-12T11:04:40.234Z,17.35
2023-05-12T11:05:46.169Z,17.36
2023-05-12T11:06:41.312Z,17.36
2023-05-12T11:07:45.808Z,17.40
2023-05-12T11:08:42.272Z,17.43
2023-05-12T11:09:53.109Z,17.44
2023-05-12T11:10:41.920Z,17.53
2023-05-12T11:11:41.026Z,17.51
2023-05-12T11:12:40.016Z,17.48
2023-05-12T11:13:39.920Z,17.49
2023-05-12T11:14:40.194Z,17.48
2023-05-12T11:15:54.019Z,17.45
2023-05-12T11:16:39.867Z,17.42
2023-05-12T11:17:40.670Z,17.44
2023-05-12T11:18:40.281Z,17.45
2023-05-12T11:19:39.835Z,17.49
2023-05-12T11:20:40.703Z,17.51
2023-05-12T11:21:40.571Z,17.61
2023-05-12T11:22:40.488Z,17.59
2023-05-12T11:23:40.146Z,17.59
2023-05-12T11:24:39.441Z,17.63
2023-05-12T11:25:41.093Z,17.65
2023-05-12T11:26:39.832Z,17.59
2023-05-12T11:27:39.968Z,17.54
2023-05-12T11:28:40.714Z,17.50
2023-05-12T11:29:40.599Z,17.51
2023-05-12T11:30:41.122Z,17.46
2023-05-12T11:31:39.463Z,17.43
2023-05-12T11:32:40.350Z,17.40
2023-05-12T11:33:40.319Z,17.44
2023-05-12T11:34:39.828Z,17.42
2023-05-12T11:35:40.342Z,17.37
2023-05-12T11:36:39.984Z,17.43
2023-05-12T11:37:39.528Z,17.46
2023-05-12T11:38:39.854Z,17.49
2023-05-12T11:39:40.461Z,17.47
2023-05-12T11:40:40.232Z,17.47
2023-05-12T11:41:39.729Z,17.46
2023-05-12T11:42:41.582Z,17.44
2023-05-12T11:43:40.246Z,17.45
2023-05-12T11:44:39.489Z,17.51
2023-05-12T11:45:40.536Z,17.48
2023-05-12T11:46:40.191Z,17.49
2023-05-12T11:47:40.161Z,17.45
2023-05-12T11:48:39.978Z,17.48
2023-05-12T11:49:39.665Z,17.54
2023-05-12T11:50:40.309Z,17.51
2023-05-12T11:51:40.208Z,17.50
2023-05-12T11:52:39.728Z,17.48
2023-05-12T11:53:42.298Z,17.51
2023-05-12T11:54:39.749Z,17.54
2023-05-12T11:55:40.459Z,17.55
2023-05-12T11:56:40.201Z,17.49
2023-05-12T11:57:39.746Z,17.48
2023-05-12T11:58:40.530Z,17.50
2023-05-12T11:59:40.449Z,17.46
2023-05-12T12:00:41.396Z,17.48
2023-05-12T12:01:40.123Z,17.48
2023-05-12T12:02:40.261Z,17.52
2023-05-12T12:03:39.880Z,17.53
2023-05-12T12:04:40.750Z,17.60
2023-05-12T12:05:40.279Z,17.64
2023-05-12T12:06:39.788Z,17.63
2023-05-12T12:07:40.205Z,17.61
2023-05-12T12:08:40.781Z,17.61
2023-05-12T12:09:39.959Z,17.60
2023-05-12T12:10:40.514Z,17.59
2023-05-12T12:11:40.023Z,17.59
2023-05-12T12:12:39.525Z,17.60
2023-05-12T12:13:40.092Z,17.55
2023-05-12T12:14:39.581Z,17.52
2023-05-12T12:15:40.978Z,17.52
2023-05-12T12:16:40.537Z,17.49
2023-05-12T12:17:40.377Z,17.49
2023-05-12T12:18:39.904Z,17.48
2023-05-12T12:19:40.122Z,17.46
2023-05-12T12:20:39.677Z,17.44
2023-05-12T12:21:39.983Z,17.42
2023-05-12T12:22:39.671Z,17.46
2023-05-12T12:23:50.405Z,17.47
2023-05-12T12:24:39.523Z,17.46
2023-05-12T12:25:39.636Z,17.47
2023-05-12T12:26:39.831Z,17.54
2023-05-12T12:27:39.986Z,17.57
2023-05-12T12:28:39.557Z,17.57
2023-05-12T12:29:40.157Z,17.62
2023-05-12T12:30:39.916Z,17.61
2023-05-12T12:31:40.011Z,17.61
2023-05-12T12:32:39.623Z,17.61
2023-05-12T12:33:39.932Z,17.60
2023-05-12T12:34:39.944Z,17.57
2023-05-12T12:35:40.143Z,17.57
2023-05-12T12:36:39.372Z,17.59
2023-05-12T12:37:39.875Z,17.61
2023-05-12T12:38:40.400Z,17.62
2023-05-12T12:39:39.790Z,17.60
2023-05-12T12:40:40.005Z,17.61
2023-05-12T12:41:39.518Z,17.59
2023-05-12T12:42:39.743Z,17.60
2023-05-12T12:43:40.182Z,17.60
2023-05-12T12:44:39.977Z,17.59
2023-05-12T12:45:41.232Z,17.59
2023-05-12T12:46:45.125Z,17.58
2023-05-12T12:47:40.260Z,17.57
2023-05-12T12:48:45.075Z,17.60
2023-05-12T12:49:39.709Z,17.63
2023-05-12T12:50:42.925Z,17.61
2023-05-12T12:51:50.842Z,17.67
2023-05-12T12:52:40.010Z,17.63
2023-05-12T12:53:40.002Z,17.60
2023-05-12T12:54:39.839Z,17.61
2023-05-12T12:55:40.393Z,17.62
2023-05-12T12:56:41.100Z,17.68
2023-05-12T12:57:39.752Z,17.69
2023-05-12T12:58:40.327Z,17.71
2023-05-12T12:59:40.062Z,17.73
2023-05-12T13:00:41.758Z,17.72